sensor_id;sensor_type;location;lat;lon;timestamp;P1;durP1;ratioP1;P2;durP2;ratioP2
16139;SDS011;8175;49.326;12.690;2022-09-21T00:01:03;18.73;;;4.10;;
16139;SDS011;8175;49.326;12.690;2022-09-21T00:03:30;6.77;;;2.80;;
16139;SDS011;8175;49.326;12.690;2022-09-21T00:06:02;8.73;;;2.30;;
16139;SDS011;8175;49.326;12.690;2022-09-21T00:08:39;22.47;;;4.57;;
16139;SDS011;8175;49.326;12.690;2022-09-21T00:11:05;2.50;;;1.50;;
16139;SDS011;8175;49.326;12.690;2022-09-21T00:13:33;7.73;;;1.77;;
16139;SDS011;8175;49.326;12.690;2022-09-21T00:15:59;16.17;;;2.90;;
16139;SDS011;8175;49.326;12.690;2022-09-21T00:18:28;2.00;;;1.80;;
16139;SDS011;8175;49.326;12.690;2022-09-21T00:20:54;4.50;;;2.20;;
16139;SDS011;8175;49.326;12.690;2022-09-21T00:23:20;1.73;;;1.50;;
16139;SDS011;8175;49.326;12.690;2022-09-21T00:25:46;2.87;;;2.20;;
16139;SDS011;8175;49.326;12.690;2022-09-21T00:28:11;3.90;;;2.03;;
16139;SDS011;8175;49.326;12.690;2022-09-21T00:30:37;1.97;;;1.80;;
16139;SDS011;8175;49.326;12.690;2022-09-21T00:33:03;2.10;;;1.90;;
16139;SDS011;8175;49.326;12.690;2022-09-21T00:35:28;2.77;;;1.90;;
16139;SDS011;8175;49.326;12.690;2022-09-21T00:37:54;6.37;;;1.93;;
16139;SDS011;8175;49.326;12.690;2022-09-21T00:40:19;3.10;;;2.10;;
16139;SDS011;8175;49.326;12.690;2022-09-21T00:42:45;6.00;;;2.30;;
16139;SDS011;8175;49.326;12.690;2022-09-21T00:45:11;9.33;;;2.00;;
16139;SDS011;8175;49.326;12.690;2022-09-21T00:47:45;5.00;;;2.77;;
16139;SDS011;8175;49.326;12.690;2022-09-21T00:50:15;4.00;;;1.67;;
16139;SDS011;8175;49.326;12.690;2022-09-21T00:52:46;8.27;;;2.13;;
16139;SDS011;8175;49.326;12.690;2022-09-21T00:55:17;15.17;;;3.17;;
16139;SDS011;8175;49.326;12.690;2022-09-21T00:57:54;6.60;;;1.73;;
16139;SDS011;8175;49.326;12.690;2022-09-21T01:00:24;12.83;;;2.27;;
16139;SDS011;8175;49.326;12.690;2022-09-21T01:02:49;8.70;;;1.77;;
16139;SDS011;8175;49.326;12.690;2022-09-21T01:05:15;12.40;;;1.90;;
16139;SDS011;8175;49.326;12.690;2022-09-21T01:07:42;2.30;;;1.73;;
16139;SDS011;8175;49.326;12.690;2022-09-21T01:10:11;5.57;;;1.60;;
16139;SDS011;8175;49.326;12.690;2022-09-21T01:20:43;2.07;;;1.40;;
16139;SDS011;8175;49.326;12.690;2022-09-21T01:31:22;1.90;;;1.33;;
16139;SDS011;8175;49.326;12.690;2022-09-21T01:33:54;2.37;;;2.00;;
16139;SDS011;8175;49.326;12.690;2022-09-21T01:36:27;2.70;;;1.90;;
16139;SDS011;8175;49.326;12.690;2022-09-21T01:39:08;3.30;;;2.20;;
16139;SDS011;8175;49.326;12.690;2022-09-21T01:41:38;5.97;;;2.60;;
16139;SDS011;8175;49.326;12.690;2022-09-21T01:44:07;3.00;;;1.30;;
16139;SDS011;8175;49.326;12.690;2022-09-21T01:46:37;6.13;;;1.57;;
16139;SDS011;8175;49.326;12.690;2022-09-21T01:49:26;12.07;;;2.43;;
16139;SDS011;8175;49.326;12.690;2022-09-21T01:52:02;1.23;;;1.13;;
16139;SDS011;8175;49.326;12.690;2022-09-21T01:54:38;1.20;;;1.10;;
16139;SDS011;8175;49.326;12.690;2022-09-21T01:57:13;4.67;;;1.60;;
16139;SDS011;8175;49.326;12.690;2022-09-21T02:02:36;8.83;;;2.60;;
16139;SDS011;8175;49.326;12.690;2022-09-21T02:05:03;1.40;;;1.30;;
16139;SDS011;8175;49.326;12.690;2022-09-21T02:07:31;1.53;;;1.40;;
16139;SDS011;8175;49.326;12.690;2022-09-21T02:09:57;1.20;;;1.10;;
16139;SDS011;8175;49.326;12.690;2022-09-21T02:12:25;7.87;;;2.70;;
16139;SDS011;8175;49.326;12.690;2022-09-21T02:14:51;1.67;;;1.57;;
16139;SDS011;8175;49.326;12.690;2022-09-21T02:25:35;3.07;;;1.70;;
16139;SDS011;8175;49.326;12.690;2022-09-21T02:28:56;1.43;;;1.33;;
16139;SDS011;8175;49.326;12.690;2022-09-21T02:31:15;1.80;;;1.70;;
16139;SDS011;8175;49.326;12.690;2022-09-21T02:36:52;1.47;;;1.33;;
16139;SDS011;8175;49.326;12.690;2022-09-21T02:42:00;2.13;;;1.93;;
16139;SDS011;8175;49.326;12.690;2022-09-21T02:44:37;18.53;;;2.57;;
16139;SDS011;8175;49.326;12.690;2022-09-21T02:47:11;4.63;;;3.03;;
16139;SDS011;8175;49.326;12.690;2022-09-21T02:50:13;11.40;;;3.47;;
16139;SDS011;8175;49.326;12.690;2022-09-21T02:52:44;11.40;;;2.93;;
16139;SDS011;8175;49.326;12.690;2022-09-21T02:55:10;7.63;;;2.33;;
16139;SDS011;8175;49.326;12.690;2022-09-21T02:57:38;2.10;;;1.90;;
16139;SDS011;8175;49.326;12.690;2022-09-21T03:00:05;8.53;;;2.30;;
16139;SDS011;8175;49.326;12.690;2022-09-21T03:02:38;47.23;;;4.77;;
16139;SDS011;8175;49.326;12.690;2022-09-21T03:05:06;12.33;;;2.60;;
16139;SDS011;8175;49.326;12.690;2022-09-21T03:07:33;4.93;;;1.33;;
16139;SDS011;8175;49.326;12.690;2022-09-21T03:09:58;12.03;;;2.33;;
16139;SDS011;8175;49.326;12.690;2022-09-21T03:12:24;6.37;;;2.47;;
16139;SDS011;8175;49.326;12.690;2022-09-21T03:14:50;8.50;;;1.90;;
16139;SDS011;8175;49.326;12.690;2022-09-21T03:17:17;4.70;;;2.60;;
16139;SDS011;8175;49.326;12.690;2022-09-21T03:19:43;2.17;;;1.97;;
16139;SDS011;8175;49.326;12.690;2022-09-21T03:22:08;3.10;;;2.10;;
16139;SDS011;8175;49.326;12.690;2022-09-21T03:24:34;1.60;;;1.50;;
16139;SDS011;8175;49.326;12.690;2022-09-21T03:27:12;3.03;;;1.53;;
16139;SDS011;8175;49.326;12.690;2022-09-21T03:29:39;3.77;;;2.50;;
16139;SDS011;8175;49.326;12.690;2022-09-21T03:32:05;2.10;;;1.90;;
16139;SDS011;8175;49.326;12.690;2022-09-21T03:34:31;10.03;;;2.93;;
16139;SDS011;8175;49.326;12.690;2022-09-21T03:36:58;14.13;;;3.53;;
16139;SDS011;8175;49.326;12.690;2022-09-21T03:39:25;2.27;;;2.03;;
16139;SDS011;8175;49.326;12.690;2022-09-21T03:41:51;6.90;;;2.37;;
16139;SDS011;8175;49.326;12.690;2022-09-21T03:44:21;13.57;;;4.23;;
16139;SDS011;8175;49.326;12.690;2022-09-21T03:46:48;13.43;;;3.27;;
16139;SDS011;8175;49.326;12.690;2022-09-21T03:49:14;9.87;;;3.10;;
16139;SDS011;8175;49.326;12.690;2022-09-21T03:51:41;2.20;;;2.00;;
16139;SDS011;8175;49.326;12.690;2022-09-21T03:54:07;2.67;;;2.30;;
16139;SDS011;8175;49.326;12.690;2022-09-21T03:56:33;19.50;;;4.17;;
16139;SDS011;8175;49.326;12.690;2022-09-21T03:58:59;17.30;;;4.27;;
16139;SDS011;8175;49.326;12.690;2022-09-21T04:01:24;7.50;;;2.17;;
16139;SDS011;8175;49.326;12.690;2022-09-21T04:03:50;2.43;;;2.23;;
16139;SDS011;8175;49.326;12.690;2022-09-21T04:06:16;9.03;;;3.47;;
16139;SDS011;8175;49.326;12.690;2022-09-21T04:08:42;5.53;;;2.87;;
16139;SDS011;8175;49.326;12.690;2022-09-21T04:11:08;9.73;;;2.63;;
16139;SDS011;8175;49.326;12.690;2022-09-21T04:13:35;2.10;;;1.90;;
16139;SDS011;8175;49.326;12.690;2022-09-21T04:16:01;20.90;;;3.80;;
16139;SDS011;8175;49.326;12.690;2022-09-21T04:18:27;7.70;;;2.67;;
16139;SDS011;8175;49.326;12.690;2022-09-21T04:20:52;6.10;;;1.60;;
16139;SDS011;8175;49.326;12.690;2022-09-21T04:23:18;1.80;;;1.33;;
16139;SDS011;8175;49.326;12.690;2022-09-21T04:25:44;6.17;;;1.50;;
16139;SDS011;8175;49.326;12.690;2022-09-21T04:28:12;1.33;;;1.23;;
16139;SDS011;8175;49.326;12.690;2022-09-21T04:30:38;1.53;;;1.43;;
16139;SDS011;8175;49.326;12.690;2022-09-21T04:33:04;1.90;;;1.40;;
16139;SDS011;8175;49.326;12.690;2022-09-21T04:35:30;13.50;;;2.83;;
16139;SDS011;8175;49.326;12.690;2022-09-21T04:37:56;2.73;;;1.13;;
16139;SDS011;8175;49.326;12.690;2022-09-21T04:40:21;2.77;;;1.93;;
16139;SDS011;8175;49.326;12.690;2022-09-21T04:42:51;2.67;;;2.47;;
16139;SDS011;8175;49.326;12.690;2022-09-21T04:45:20;1.30;;;1.20;;
16139;SDS011;8175;49.326;12.690;2022-09-21T04:47:47;1.50;;;1.40;;
16139;SDS011;8175;49.326;12.690;2022-09-21T04:50:12;4.47;;;1.17;;
16139;SDS011;8175;49.326;12.690;2022-09-21T04:52:39;9.13;;;3.50;;
16139;SDS011;8175;49.326;12.690;2022-09-21T04:55:05;12.27;;;3.57;;
16139;SDS011;8175;49.326;12.690;2022-09-21T04:57:31;7.77;;;4.67;;
16139;SDS011;8175;49.326;12.690;2022-09-21T04:59:57;11.70;;;5.20;;
16139;SDS011;8175;49.326;12.690;2022-09-21T05:02:23;3.10;;;2.80;;
16139;SDS011;8175;49.326;12.690;2022-09-21T05:04:49;2.20;;;2.00;;
16139;SDS011;8175;49.326;12.690;2022-09-21T05:07:15;2.30;;;2.10;;
16139;SDS011;8175;49.326;12.690;2022-09-21T05:09:40;2.73;;;2.00;;
16139;SDS011;8175;49.326;12.690;2022-09-21T05:12:25;2.80;;;2.57;;
16139;SDS011;8175;49.326;12.690;2022-09-21T05:14:51;3.33;;;2.43;;
16139;SDS011;8175;49.326;12.690;2022-09-21T05:17:17;4.23;;;2.57;;
16139;SDS011;8175;49.326;12.690;2022-09-21T05:19:46;9.67;;;5.07;;
16139;SDS011;8175;49.326;12.690;2022-09-21T05:22:12;21.07;;;8.10;;
16139;SDS011;8175;49.326;12.690;2022-09-21T05:24:37;23.40;;;10.73;;
16139;SDS011;8175;49.326;12.690;2022-09-21T05:27:03;21.57;;;11.83;;
16139;SDS011;8175;49.326;12.690;2022-09-21T05:29:29;19.33;;;11.27;;
16139;SDS011;8175;49.326;12.690;2022-09-21T05:32:11;20.10;;;10.83;;
16139;SDS011;8175;49.326;12.690;2022-09-21T05:34:58;20.60;;;10.93;;
16139;SDS011;8175;49.326;12.690;2022-09-21T05:40:32;12.53;;;7.43;;
16139;SDS011;8175;49.326;12.690;2022-09-21T05:42:58;10.73;;;7.07;;
16139;SDS011;8175;49.326;12.690;2022-09-21T05:45:24;20.27;;;10.13;;
16139;SDS011;8175;49.326;12.690;2022-09-21T05:59:07;19.80;;;8.20;;
16139;SDS011;8175;49.326;12.690;2022-09-21T06:04:25;54.67;;;12.90;;
16139;SDS011;8175;49.326;12.690;2022-09-21T06:06:51;21.60;;;10.90;;
16139;SDS011;8175;49.326;12.690;2022-09-21T06:09:17;18.20;;;9.73;;
16139;SDS011;8175;49.326;12.690;2022-09-21T06:11:44;41.10;;;13.47;;
16139;SDS011;8175;49.326;12.690;2022-09-21T06:14:11;54.20;;;14.20;;
16139;SDS011;8175;49.326;12.690;2022-09-21T06:16:40;62.67;;;13.73;;
16139;SDS011;8175;49.326;12.690;2022-09-21T06:19:10;28.23;;;11.73;;
16139;SDS011;8175;49.326;12.690;2022-09-21T06:21:36;20.40;;;10.03;;
16139;SDS011;8175;49.326;12.690;2022-09-21T06:24:02;14.37;;;8.37;;
16139;SDS011;8175;49.326;12.690;2022-09-21T06:26:28;13.93;;;9.33;;
16139;SDS011;8175;49.326;12.690;2022-09-21T06:28:54;15.57;;;8.33;;
16139;SDS011;8175;49.326;12.690;2022-09-21T06:31:19;15.97;;;9.40;;
16139;SDS011;8175;49.326;12.690;2022-09-21T06:33:45;29.20;;;16.90;;
16139;SDS011;8175;49.326;12.690;2022-09-21T06:36:11;192.73;;;101.73;;
16139;SDS011;8175;49.326;12.690;2022-09-21T06:38:38;155.20;;;82.23;;
16139;SDS011;8175;49.326;12.690;2022-09-21T06:41:03;38.17;;;19.57;;
16139;SDS011;8175;49.326;12.690;2022-09-21T06:43:30;30.77;;;15.57;;
16139;SDS011;8175;49.326;12.690;2022-09-21T06:46:00;25.97;;;15.53;;
16139;SDS011;8175;49.326;12.690;2022-09-21T06:48:27;29.10;;;17.13;;
16139;SDS011;8175;49.326;12.690;2022-09-21T06:50:58;33.10;;;18.30;;
16139;SDS011;8175;49.326;12.690;2022-09-21T06:53:26;23.73;;;15.77;;
16139;SDS011;8175;49.326;12.690;2022-09-21T06:55:52;23.03;;;15.60;;
16139;SDS011;8175;49.326;12.690;2022-09-21T06:58:18;30.73;;;19.03;;
16139;SDS011;8175;49.326;12.690;2022-09-21T07:00:44;28.70;;;18.57;;
16139;SDS011;8175;49.326;12.690;2022-09-21T07:03:10;25.87;;;18.33;;
16139;SDS011;8175;49.326;12.690;2022-09-21T07:05:39;31.23;;;21.87;;
16139;SDS011;8175;49.326;12.690;2022-09-21T07:08:05;36.17;;;22.87;;
16139;SDS011;8175;49.326;12.690;2022-09-21T07:10:30;28.57;;;19.93;;
16139;SDS011;8175;49.326;12.690;2022-09-21T07:13:01;22.37;;;15.80;;
16139;SDS011;8175;49.326;12.690;2022-09-21T07:15:28;21.10;;;15.37;;
16139;SDS011;8175;49.326;12.690;2022-09-21T07:17:55;29.13;;;20.63;;
16139;SDS011;8175;49.326;12.690;2022-09-21T07:20:21;26.30;;;18.97;;
16139;SDS011;8175;49.326;12.690;2022-09-21T07:22:46;29.30;;;21.30;;
16139;SDS011;8175;49.326;12.690;2022-09-21T07:25:12;17.13;;;14.23;;
16139;SDS011;8175;49.326;12.690;2022-09-21T07:27:38;15.70;;;12.80;;
16139;SDS011;8175;49.326;12.690;2022-09-21T07:30:05;20.30;;;15.77;;
16139;SDS011;8175;49.326;12.690;2022-09-21T07:32:32;22.47;;;16.67;;
16139;SDS011;8175;49.326;12.690;2022-09-21T07:34:57;28.83;;;24.47;;
16139;SDS011;8175;49.326;12.690;2022-09-21T07:37:23;14.13;;;12.43;;
16139;SDS011;8175;49.326;12.690;2022-09-21T07:39:50;12.53;;;11.23;;
16139;SDS011;8175;49.326;12.690;2022-09-21T07:42:16;11.63;;;10.40;;
16139;SDS011;8175;49.326;12.690;2022-09-21T07:44:47;11.63;;;10.43;;
16139;SDS011;8175;49.326;12.690;2022-09-21T07:47:13;27.17;;;21.23;;
16139;SDS011;8175;49.326;12.690;2022-09-21T07:49:39;18.77;;;15.40;;
16139;SDS011;8175;49.326;12.690;2022-09-21T07:52:06;13.30;;;11.60;;
16139;SDS011;8175;49.326;12.690;2022-09-21T07:54:32;24.63;;;19.20;;
16139;SDS011;8175;49.326;12.690;2022-09-21T07:56:59;16.03;;;13.90;;
16139;SDS011;8175;49.326;12.690;2022-09-21T07:59:43;13.80;;;11.63;;
16139;SDS011;8175;49.326;12.690;2022-09-21T08:02:09;12.33;;;11.00;;
16139;SDS011;8175;49.326;12.690;2022-09-21T08:04:35;14.03;;;12.63;;
16139;SDS011;8175;49.326;12.690;2022-09-21T08:07:01;9.47;;;8.47;;
16139;SDS011;8175;49.326;12.690;2022-09-21T08:09:27;8.13;;;7.30;;
16139;SDS011;8175;49.326;12.690;2022-09-21T08:11:52;7.30;;;6.63;;
16139;SDS011;8175;49.326;12.690;2022-09-21T08:14:18;12.00;;;9.80;;
16139;SDS011;8175;49.326;12.690;2022-09-21T08:16:45;11.10;;;9.57;;
16139;SDS011;8175;49.326;12.690;2022-09-21T08:19:12;11.37;;;8.90;;
16139;SDS011;8175;49.326;12.690;2022-09-21T08:21:38;8.70;;;7.80;;
16139;SDS011;8175;49.326;12.690;2022-09-21T08:24:04;38.20;;;25.73;;
16139;SDS011;8175;49.326;12.690;2022-09-21T08:26:30;16.87;;;11.07;;
16139;SDS011;8175;49.326;12.690;2022-09-21T08:28:55;11.63;;;8.90;;
16139;SDS011;8175;49.326;12.690;2022-09-21T08:31:22;36.70;;;24.17;;
16139;SDS011;8175;49.326;12.690;2022-09-21T08:33:49;13.07;;;11.00;;
16139;SDS011;8175;49.326;12.690;2022-09-21T08:36:16;5.43;;;4.93;;
16139;SDS011;8175;49.326;12.690;2022-09-21T08:38:42;5.93;;;5.40;;
16139;SDS011;8175;49.326;12.690;2022-09-21T08:41:16;13.43;;;9.43;;
16139;SDS011;8175;49.326;12.690;2022-09-21T08:43:45;8.93;;;7.50;;
16139;SDS011;8175;49.326;12.690;2022-09-21T08:46:18;4.23;;;3.83;;
16139;SDS011;8175;49.326;12.690;2022-09-21T08:48:52;4.87;;;4.47;;
16139;SDS011;8175;49.326;12.690;2022-09-21T08:51:25;4.30;;;3.90;;
16139;SDS011;8175;49.326;12.690;2022-09-21T08:53:55;4.67;;;4.17;;
16139;SDS011;8175;49.326;12.690;2022-09-21T08:56:30;4.30;;;3.90;;
16139;SDS011;8175;49.326;12.690;2022-09-21T08:58:56;3.77;;;3.37;;
16139;SDS011;8175;49.326;12.690;2022-09-21T09:01:31;3.60;;;3.40;;
16139;SDS011;8175;49.326;12.690;2022-09-21T09:07:03;3.20;;;3.00;;
16139;SDS011;8175;49.326;12.690;2022-09-21T09:20:56;2.90;;;2.70;;
16139;SDS011;8175;49.326;12.690;2022-09-21T09:23:25;3.63;;;3.33;;
16139;SDS011;8175;49.326;12.690;2022-09-21T09:25:58;3.67;;;3.37;;
16139;SDS011;8175;49.326;12.690;2022-09-21T09:33:51;3.83;;;3.43;;
16139;SDS011;8175;49.326;12.690;2022-09-21T09:36:18;8.80;;;6.13;;
16139;SDS011;8175;49.326;12.690;2022-09-21T09:38:46;3.27;;;2.97;;
16139;SDS011;8175;49.326;12.690;2022-09-21T09:46:33;2.13;;;1.90;;
16139;SDS011;8175;49.326;12.690;2022-09-21T09:51:48;2.43;;;2.23;;
16139;SDS011;8175;49.326;12.690;2022-09-21T09:54:15;2.97;;;2.30;;
16139;SDS011;8175;49.326;12.690;2022-09-21T09:56:43;2.10;;;1.90;;
16139;SDS011;8175;49.326;12.690;2022-09-21T09:59:11;1.90;;;1.77;;
16139;SDS011;8175;49.326;12.690;2022-09-21T10:01:57;1.60;;;1.50;;
16139;SDS011;8175;49.326;12.690;2022-09-21T10:04:24;2.33;;;2.13;;
16139;SDS011;8175;49.326;12.690;2022-09-21T10:06:50;2.10;;;1.90;;
16139;SDS011;8175;49.326;12.690;2022-09-21T10:09:17;1.77;;;1.50;;
16139;SDS011;8175;49.326;12.690;2022-09-21T10:11:43;1.60;;;1.50;;
16139;SDS011;8175;49.326;12.690;2022-09-21T10:14:09;1.98;;;1.80;;
16139;SDS011;8175;49.326;12.690;2022-09-21T10:16:41;1.58;;;1.48;;
16139;SDS011;8175;49.326;12.690;2022-09-21T10:19:13;1.50;;;1.40;;
16139;SDS011;8175;49.326;12.690;2022-09-21T10:21:42;4.43;;;1.23;;
16139;SDS011;8175;49.326;12.690;2022-09-21T10:24:21;1.60;;;1.50;;
16139;SDS011;8175;49.326;12.690;2022-09-21T10:26:53;1.27;;;1.23;;
16139;SDS011;8175;49.326;12.690;2022-09-21T10:32:03;1.42;;;1.33;;
16139;SDS011;8175;49.326;12.690;2022-09-21T10:34:31;1.27;;;1.17;;
16139;SDS011;8175;49.326;12.690;2022-09-21T10:37:19;1.55;;;1.23;;
16139;SDS011;8175;49.326;12.690;2022-09-21T10:39:49;1.30;;;1.20;;
16139;SDS011;8175;49.326;12.690;2022-09-21T10:42:15;1.33;;;1.23;;
16139;SDS011;8175;49.326;12.690;2022-09-21T10:44:44;0.90;;;0.90;;
16139;SDS011;8175;49.326;12.690;2022-09-21T10:49:50;16.37;;;11.37;;
16139;SDS011;8175;49.326;12.690;2022-09-21T10:52:23;27.90;;;19.27;;
16139;SDS011;8175;49.326;12.690;2022-09-21T10:54:56;3.23;;;1.80;;
16139;SDS011;8175;49.326;12.690;2022-09-21T10:57:23;2.07;;;1.40;;
16139;SDS011;8175;49.326;12.690;2022-09-21T10:59:50;33.93;;;23.77;;
16139;SDS011;8175;49.326;12.690;2022-09-21T11:02:27;2.03;;;1.60;;
16139;SDS011;8175;49.326;12.690;2022-09-21T11:04:57;1.23;;;1.10;;
16139;SDS011;8175;49.326;12.690;2022-09-21T11:07:44;1.40;;;1.10;;
16139;SDS011;8175;49.326;12.690;2022-09-21T11:12:56;1.60;;;0.90;;
16139;SDS011;8175;49.326;12.690;2022-09-21T11:21:11;2.83;;;2.30;;
16139;SDS011;8175;49.326;12.690;2022-09-21T11:26:24;2.00;;;1.80;;
16139;SDS011;8175;49.326;12.690;2022-09-21T11:31:47;1.60;;;1.33;;
16139;SDS011;8175;49.326;12.690;2022-09-21T11:53:30;1.23;;;0.93;;
16139;SDS011;8175;49.326;12.690;2022-09-21T11:58:38;1.23;;;1.03;;
16139;SDS011;8175;49.326;12.690;2022-09-21T12:10:08;1.30;;;0.90;;
16139;SDS011;8175;49.326;12.690;2022-09-21T12:15:21;4.23;;;1.77;;
16139;SDS011;8175;49.326;12.690;2022-09-21T12:23:45;0.82;;;0.80;;
16139;SDS011;8175;49.326;12.690;2022-09-21T12:26:27;1.13;;;0.85;;
16139;SDS011;8175;49.326;12.690;2022-09-21T12:29:10;0.88;;;0.80;;
16139;SDS011;8175;49.326;12.690;2022-09-21T12:31:44;1.00;;;0.90;;
16139;SDS011;8175;49.326;12.690;2022-09-21T12:34:43;0.88;;;0.88;;
16139;SDS011;8175;49.326;12.690;2022-09-21T12:43:12;1.05;;;1.02;;
16139;SDS011;8175;49.326;12.690;2022-09-21T12:45:51;1.20;;;0.70;;
16139;SDS011;8175;49.326;12.690;2022-09-21T12:50:58;1.10;;;0.95;;
16139;SDS011;8175;49.326;12.690;2022-09-21T12:53:48;1.13;;;0.80;;
16139;SDS011;8175;49.326;12.690;2022-09-21T13:12:53;2.33;;;1.00;;
16139;SDS011;8175;49.326;12.690;2022-09-21T13:15:24;1.10;;;1.00;;
16139;SDS011;8175;49.326;12.690;2022-09-21T13:18:01;1.90;;;1.10;;
16139;SDS011;8175;49.326;12.690;2022-09-21T13:20:39;2.00;;;1.10;;
16139;SDS011;8175;49.326;12.690;2022-09-21T13:23:10;0.80;;;0.70;;
16139;SDS011;8175;49.326;12.690;2022-09-21T13:25:57;1.53;;;1.30;;
16139;SDS011;8175;49.326;12.690;2022-09-21T13:28:39;1.00;;;0.70;;
16139;SDS011;8175;49.326;12.690;2022-09-21T13:36:41;2.57;;;1.20;;
16139;SDS011;8175;49.326;12.690;2022-09-21T13:41:33;0.77;;;0.70;;
16139;SDS011;8175;49.326;12.690;2022-09-21T13:44:02;0.97;;;0.67;;
16139;SDS011;8175;49.326;12.690;2022-09-21T13:49:02;1.93;;;1.50;;
16139;SDS011;8175;49.326;12.690;2022-09-21T13:51:51;0.97;;;0.97;;
16139;SDS011;8175;49.326;12.690;2022-09-21T13:54:19;1.87;;;0.80;;
16139;SDS011;8175;49.326;12.690;2022-09-21T13:59:46;1.70;;;1.27;;
16139;SDS011;8175;49.326;12.690;2022-09-21T14:02:31;0.80;;;0.80;;
16139;SDS011;8175;49.326;12.690;2022-09-21T14:05:01;2.43;;;0.83;;
16139;SDS011;8175;49.326;12.690;2022-09-21T14:07:40;1.10;;;0.95;;
16139;SDS011;8175;49.326;12.690;2022-09-21T14:10:07;1.55;;;1.15;;
16139;SDS011;8175;49.326;12.690;2022-09-21T14:12:37;1.38;;;0.82;;
16139;SDS011;8175;49.326;12.690;2022-09-21T14:23:30;3.28;;;0.98;;
16139;SDS011;8175;49.326;12.690;2022-09-21T14:25:56;1.15;;;0.80;;
16139;SDS011;8175;49.326;12.690;2022-09-21T14:28:33;1.13;;;0.80;;
16139;SDS011;8175;49.326;12.690;2022-09-21T14:31:23;1.67;;;1.13;;
16139;SDS011;8175;49.326;12.690;2022-09-21T14:33:53;1.10;;;1.00;;
16139;SDS011;8175;49.326;12.690;2022-09-21T14:36:25;2.70;;;2.17;;
16139;SDS011;8175;49.326;12.690;2022-09-21T14:39:03;4.57;;;2.57;;
16139;SDS011;8175;49.326;12.690;2022-09-21T14:41:36;2.43;;;2.10;;
16139;SDS011;8175;49.326;12.690;2022-09-21T14:44:04;1.40;;;1.13;;
16139;SDS011;8175;49.326;12.690;2022-09-21T14:52:26;0.73;;;0.53;;
16139;SDS011;8175;49.326;12.690;2022-09-21T14:58:04;0.80;;;0.80;;
16139;SDS011;8175;49.326;12.690;2022-09-21T15:00:39;0.98;;;0.70;;
16139;SDS011;8175;49.326;12.690;2022-09-21T15:12:09;2.08;;;1.00;;
16139;SDS011;8175;49.326;12.690;2022-09-21T15:14:45;1.80;;;0.67;;
16139;SDS011;8175;49.326;12.690;2022-09-21T15:19:49;2.30;;;1.07;;
16139;SDS011;8175;49.326;12.690;2022-09-21T15:22:19;3.07;;;0.80;;
16139;SDS011;8175;49.326;12.690;2022-09-21T15:24:53;0.80;;;0.77;;
16139;SDS011;8175;49.326;12.690;2022-09-21T15:27:21;1.23;;;0.93;;
16139;SDS011;8175;49.326;12.690;2022-09-21T15:29:56;0.57;;;0.57;;
16139;SDS011;8175;49.326;12.690;2022-09-21T15:32:42;1.93;;;1.17;;
16139;SDS011;8175;49.326;12.690;2022-09-21T15:37:52;1.17;;;1.00;;
16139;SDS011;8175;49.326;12.690;2022-09-21T15:40:22;2.20;;;1.20;;
16139;SDS011;8175;49.326;12.690;2022-09-21T15:45:30;2.10;;;1.67;;
16139;SDS011;8175;49.326;12.690;2022-09-21T15:48:15;1.43;;;0.97;;
16139;SDS011;8175;49.326;12.690;2022-09-21T15:50:41;4.13;;;0.97;;
16139;SDS011;8175;49.326;12.690;2022-09-21T15:53:29;2.43;;;0.93;;
16139;SDS011;8175;49.326;12.690;2022-09-21T15:55:57;2.17;;;0.97;;
16139;SDS011;8175;49.326;12.690;2022-09-21T16:01:03;1.13;;;1.03;;
16139;SDS011;8175;49.326;12.690;2022-09-21T16:03:35;1.20;;;1.10;;
16139;SDS011;8175;49.326;12.690;2022-09-21T16:06:16;1.00;;;0.77;;
16139;SDS011;8175;49.326;12.690;2022-09-21T16:08:45;0.73;;;0.73;;
16139;SDS011;8175;49.326;12.690;2022-09-21T16:11:12;2.27;;;1.23;;
16139;SDS011;8175;49.326;12.690;2022-09-21T16:13:38;4.70;;;0.90;;
16139;SDS011;8175;49.326;12.690;2022-09-21T16:16:22;1.13;;;0.90;;
16139;SDS011;8175;49.326;12.690;2022-09-21T16:18:49;1.17;;;0.73;;
16139;SDS011;8175;49.326;12.690;2022-09-21T16:21:27;1.13;;;0.77;;
16139;SDS011;8175;49.326;12.690;2022-09-21T16:23:58;1.40;;;0.83;;
16139;SDS011;8175;49.326;12.690;2022-09-21T16:26:40;0.90;;;0.90;;
16139;SDS011;8175;49.326;12.690;2022-09-21T16:31:32;1.47;;;0.70;;
16139;SDS011;8175;49.326;12.690;2022-09-21T16:34:03;1.37;;;0.60;;
16139;SDS011;8175;49.326;12.690;2022-09-21T16:36:43;1.03;;;0.83;;
16139;SDS011;8175;49.326;12.690;2022-09-21T16:39:09;1.83;;;0.70;;
16139;SDS011;8175;49.326;12.690;2022-09-21T16:41:39;1.00;;;0.80;;
16139;SDS011;8175;49.326;12.690;2022-09-21T16:44:21;0.80;;;0.80;;
16139;SDS011;8175;49.326;12.690;2022-09-21T16:46:50;1.63;;;0.80;;
16139;SDS011;8175;49.326;12.690;2022-09-21T16:49:26;2.30;;;0.70;;
16139;SDS011;8175;49.326;12.690;2022-09-21T16:51:55;2.50;;;1.17;;
16139;SDS011;8175;49.326;12.690;2022-09-21T16:54:21;1.37;;;0.80;;
16139;SDS011;8175;49.326;12.690;2022-09-21T16:56:50;0.80;;;0.73;;
16139;SDS011;8175;49.326;12.690;2022-09-21T16:59:17;1.20;;;0.80;;
16139;SDS011;8175;49.326;12.690;2022-09-21T17:01:47;0.77;;;0.70;;
16139;SDS011;8175;49.326;12.690;2022-09-21T17:04:17;1.80;;;0.57;;
16139;SDS011;8175;49.326;12.690;2022-09-21T17:06:46;0.63;;;0.60;;
16139;SDS011;8175;49.326;12.690;2022-09-21T17:09:16;0.83;;;0.80;;
16139;SDS011;8175;49.326;12.690;2022-09-21T17:11:44;0.70;;;0.70;;
16139;SDS011;8175;49.326;12.690;2022-09-21T17:14:12;1.83;;;0.70;;
16139;SDS011;8175;49.326;12.690;2022-09-21T17:16:43;1.10;;;0.80;;
16139;SDS011;8175;49.326;12.690;2022-09-21T17:19:11;1.20;;;1.00;;
16139;SDS011;8175;49.326;12.690;2022-09-21T17:21:36;0.80;;;0.73;;
16139;SDS011;8175;49.326;12.690;2022-09-21T17:24:02;1.00;;;0.90;;
16139;SDS011;8175;49.326;12.690;2022-09-21T17:26:28;1.67;;;0.80;;
16139;SDS011;8175;49.326;12.690;2022-09-21T17:28:55;0.93;;;0.60;;
16139;SDS011;8175;49.326;12.690;2022-09-21T17:31:20;1.47;;;0.80;;
16139;SDS011;8175;49.326;12.690;2022-09-21T17:33:48;0.70;;;0.70;;
16139;SDS011;8175;49.326;12.690;2022-09-21T17:36:15;1.30;;;1.10;;
16139;SDS011;8175;49.326;12.690;2022-09-21T17:38:42;0.87;;;0.87;;
16139;SDS011;8175;49.326;12.690;2022-09-21T17:41:13;1.90;;;0.87;;
16139;SDS011;8175;49.326;12.690;2022-09-21T17:44:04;0.97;;;0.87;;
16139;SDS011;8175;49.326;12.690;2022-09-21T17:46:53;1.43;;;1.00;;
16139;SDS011;8175;49.326;12.690;2022-09-21T17:49:22;1.80;;;1.20;;
16139;SDS011;8175;49.326;12.690;2022-09-21T17:51:48;2.13;;;0.90;;
16139;SDS011;8175;49.326;12.690;2022-09-21T17:54:32;1.47;;;1.07;;
16139;SDS011;8175;49.326;12.690;2022-09-21T17:59:32;2.23;;;1.37;;
16139;SDS011;8175;49.326;12.690;2022-09-21T18:02:00;0.80;;;0.80;;
16139;SDS011;8175;49.326;12.690;2022-09-21T18:04:42;0.93;;;0.80;;
16139;SDS011;8175;49.326;12.690;2022-09-21T18:07:09;1.07;;;0.93;;
16139;SDS011;8175;49.326;12.690;2022-09-21T18:09:36;7.67;;;5.83;;
16139;SDS011;8175;49.326;12.690;2022-09-21T18:15:15;4.23;;;2.63;;
16139;SDS011;8175;49.326;12.690;2022-09-21T18:18:25;3.27;;;2.60;;
16139;SDS011;8175;49.326;12.690;2022-09-21T18:21:21;7.57;;;4.33;;
16139;SDS011;8175;49.326;12.690;2022-09-21T18:26:20;16.10;;;9.90;;
16139;SDS011;8175;49.326;12.690;2022-09-21T18:28:47;18.97;;;12.20;;
16139;SDS011;8175;49.326;12.690;2022-09-21T18:36:59;1.80;;;1.60;;
16139;SDS011;8175;49.326;12.690;2022-09-21T18:47:59;1.70;;;1.60;;
16139;SDS011;8175;49.326;12.690;2022-09-21T18:53:54;3.43;;;3.13;;
16139;SDS011;8175;49.326;12.690;2022-09-21T18:56:29;6.60;;;3.40;;
16139;SDS011;8175;49.326;12.690;2022-09-21T18:58:58;4.17;;;3.03;;